Time;durP1;ratioP1;P1;durP2;ratioP2;P2;SDS_P1;SDS_P2;PMS_P1;PMS_P2;Temp;Humidity;BMP_temperature;BMP_pressure;BME280_temperature;BME280_humidity;BME280_pressure;Samples;Min_cycle;Max_cycle;Signal;HPM_P1;HPM_P2
2023/07/17 00:02:10;;;;;;;6.80;2.53;;;;;;;15.50;100.00;101333.28;10414910;28;20034;-64
2023/07/17 00:07:11;;;;;;;6.72;3.00;;;;;;;15.52;100.00;101347.72;10413512;28;20048;-66
2023/07/17 00:12:12;;;;;;;6.93;2.60;;;;;;;15.52;100.00;101336.59;10426565;28;20400;-66
2023/07/17 00:17:13;;;;;;;8.25;2.75;;;;;;;15.56;100.00;101336.03;10437969;28;20063;-66
2023/07/17 00:22:14;;;;;;;6.28;2.47;;;;;;;15.58;100.00;101333.81;10438553;28;20029;-66
2023/07/17 00:27:14;;;;;;;4.43;2.22;;;;;;;15.58;100.00;101323.53;10399263;28;20049;-66
2023/07/17 00:32:15;;;;;;;4.35;2.42;;;;;;;15.61;100.00;101333.28;10395488;28;20213;-67
2023/07/17 00:37:16;;;;;;;6.40;3.72;;;;;;;15.61;100.00;101328.56;10379075;28;20385;-66
2023/07/17 00:42:16;;;;;;;9.68;2.97;;;;;;;15.66;100.00;101327.72;10413579;28;20040;-67
2023/07/17 00:47:17;;;;;;;7.05;2.92;;;;;;;15.68;100.00;101325.50;10412187;28;20128;-65
2023/07/17 00:52:17;;;;;;;5.07;2.45;;;;;;;15.72;100.00;101329.41;10413219;28;20480;-66
2023/07/17 00:57:18;;;;;;;5.80;2.33;;;;;;;15.77;100.00;101337.72;10394717;28;20052;-66
2023/07/17 01:02:18;;;;;;;7.78;2.70;;;;;;;15.79;100.00;101346.59;10401987;28;20041;-67
2023/07/17 01:07:19;;;;;;;7.20;2.30;;;;;;;15.78;100.00;101336.63;10418951;28;20057;-66
2023/07/17 01:12:19;;;;;;;6.75;2.33;;;;;;;15.74;100.00;101335.53;10453562;28;20060;-67
2023/07/17 01:17:20;;;;;;;7.35;2.67;;;;;;;15.69;100.00;101341.88;10419000;28;20033;-67
2023/07/17 01:22:30;;;;;;;7.18;2.60;;;;;;;15.58;100.00;101328.28;10419483;28;20087;-67
2023/07/17 01:27:30;;;;;;;9.10;2.30;;;;;;;15.56;100.00;101347.13;10393553;28;20099;-67
2023/07/17 01:32:31;;;;;;;9.95;2.80;;;;;;;15.47;100.00;101356.00;10411455;28;20038;-67
2023/07/17 01:37:32;;;;;;;6.65;2.92;;;;;;;15.41;100.00;101351.56;10409804;28;20037;-67
2023/07/17 01:42:32;;;;;;;5.78;1.77;;;;;;;15.37;100.00;101336.56;10393958;28;20049;-67
2023/07/17 01:47:32;;;;;;;4.90;1.90;;;;;;;15.34;100.00;101335.19;10393676;28;20038;-66
2023/07/17 01:52:33;;;;;;;6.28;1.98;;;;;;;15.28;100.00;101335.47;10394230;28;20308;-67
2023/07/17 01:57:33;;;;;;;7.07;1.92;;;;;;;15.25;100.00;101344.31;10410584;28;20599;-65
2023/07/17 02:02:34;;;;;;;5.05;1.73;;;;;;;15.16;100.00;101337.66;10377692;28;20446;-67
2023/07/17 02:07:35;;;;;;;5.85;1.77;;;;;;;15.09;100.00;101347.06;10393653;28;20056;-66
2023/07/17 02:12:35;;;;;;;6.28;1.63;;;;;;;15.04;100.00;101349.81;10393512;28;20092;-66
2023/07/17 02:17:35;;;;;;;6.55;1.42;;;;;;;14.89;100.00;101328.41;10378209;28;20112;-67
2023/07/17 02:22:37;;;;;;;4.05;1.63;;;;;;;14.82;100.00;101327.00;10446227;28;20041;-66
2023/07/17 02:27:37;;;;;;;5.15;1.40;;;;;;;14.88;100.00;101348.09;10434651;28;20516;-66
2023/07/17 02:32:38;;;;;;;2.45;0.93;;;;;;;14.80;100.00;101352.25;10448108;28;20041;-66
2023/07/17 02:37:38;;;;;;;4.75;1.30;;;;;;;14.73;100.00;101355.25;10393870;28;20470;-66
2023/07/17 02:42:39;;;;;;;4.50;1.25;;;;;;;14.68;100.00;101355.22;10411425;28;20110;-66
2023/07/17 02:47:39;;;;;;;3.58;1.38;;;;;;;14.69;100.00;101356.06;10411113;28;20041;-66
2023/07/17 02:52:41;;;;;;;6.88;1.90;;;;;;;14.69;100.00;101356.88;10410014;28;20864;-66
2023/07/17 02:57:41;;;;;;;4.38;1.55;;;;;;;14.65;100.00;101369.63;10399154;28;20037;-67
2023/07/17 03:02:42;;;;;;;3.08;1.27;;;;;;;14.61;100.00;101368.47;10399751;28;20091;-66
2023/07/17 03:07:46;;;;;;;9.18;1.33;;;;;;;14.52;100.00;101364.53;10402832;28;20038;-66
2023/07/17 03:12:47;;;;;;;9.10;2.00;;;;;;;14.44;100.00;101371.41;10399833;28;20037;-67
2023/07/17 03:17:47;;;;;;;8.00;2.45;;;;;;;14.41;100.00;101366.44;10415925;28;20034;-67
2023/07/17 03:22:48;;;;;;;6.20;2.08;;;;;;;14.33;100.00;101362.22;10398556;28;20033;-66
2023/07/17 03:27:49;;;;;;;6.68;1.50;;;;;;;14.33;100.00;101373.28;10398038;28;20056;-66
2023/07/17 03:32:49;;;;;;;6.25;2.17;;;;;;;14.29;100.00;101374.94;10415841;28;20037;-66
2023/07/17 03:37:50;;;;;;;4.18;1.67;;;;;;;14.28;100.00;101387.13;10383058;28;20493;-66
2023/07/17 03:42:51;;;;;;;7.15;2.25;;;;;;;14.25;100.00;101384.03;10402625;28;20171;-67
2023/07/17 03:47:51;;;;;;;7.95;1.35;;;;;;;14.27;100.00;101382.66;10397992;28;20041;-66
2023/07/17 03:52:52;;;;;;;4.22;1.60;;;;;;;14.33;100.00;101384.38;10413605;28;20123;-67
2023/07/17 03:57:52;;;;;;;8.23;1.88;;;;;;;14.36;100.00;101390.47;10414307;28;20038;-66
2023/07/17 04:02:53;;;;;;;9.00;1.60;;;;;;;14.37;100.00;101384.69;10418165;28;20048;-66
2023/07/17 04:07:54;;;;;;;7.38;1.75;;;;;;;14.37;100.00;101381.09;10413352;28;20041;-66
2023/07/17 04:12:54;;;;;;;10.20;2.05;;;;;;;14.37;100.00;101383.84;10397641;28;20049;-66
2023/07/17 04:17:55;;;;;;;8.43;2.22;;;;;;;14.23;100.00;101376.00;10381729;28;20033;-66
2023/07/17 04:22:55;;;;;;;10.38;1.98;;;;;;;14.33;100.00;101394.63;10381853;28;20084;-67
2023/07/17 04:27:56;;;;;;;7.90;2.22;;;;;;;14.29;100.00;101386.00;10412154;28;20045;-66
2023/07/17 04:32:58;;;;;;;12.23;2.20;;;;;;;14.29;100.00;101397.09;10395858;28;20046;-66
2023/07/17 04:37:58;;;;;;;6.53;2.15;;;;;;;14.31;100.00;101405.97;10413477;28;20037;-66
2023/07/17 04:43:00;;;;;;;7.78;1.98;;;;;;;14.39;100.00;101412.13;10414238;28;20036;-67
2023/07/17 04:48:00;;;;;;;12.20;2.55;;;;;;;14.42;100.00;101403.25;10396366;28;20052;-66
2023/07/17 04:53:01;;;;;;;7.15;2.03;;;;;;;14.39;100.00;101389.97;10421539;28;20110;-67
2023/07/17 04:58:01;;;;;;;6.85;2.00;;;;;;;14.51;100.00;101405.28;10454303;28;20044;-67
2023/07/17 05:03:02;;;;;;;10.60;2.67;;;;;;;14.59;100.00;101405.88;10418638;28;20052;-67
2023/07/17 05:08:02;;;;;;;8.07;2.13;;;;;;;14.63;100.00;101402.31;10454578;28;20043;-66
2023/07/17 05:13:03;;;;;;;5.82;2.38;;;;;;;14.67;100.00;101402.59;10454364;28;20029;-66
2023/07/17 05:18:03;;;;;;;8.73;2.20;;;;;;;14.66;100.00;101396.25;10454038;28;20064;-67
2023/07/17 05:23:04;;;;;;;10.18;3.00;;;;;;;14.70;100.00;101397.38;10395109;28;20057;-67
2023/07/17 05:28:04;;;;;;;9.77;3.20;;;;;;;14.79;100.00;101405.16;10408728;28;20053;-67
2023/07/17 05:33:05;;;;;;;6.18;2.58;;;;;;;14.90;100.00;101406.88;10412684;28;20041;-66
2023/07/17 05:38:06;;;;;;;11.60;3.30;;;;;;;15.04;100.00;101405.28;10362474;28;20045;-67
2023/07/17 05:43:07;;;;;;;13.60;2.35;;;;;;;15.21;100.00;101402.28;10418199;28;20048;-67
2023/07/17 05:48:08;;;;;;;8.07;2.63;;;;;;;15.40;100.00;101418.41;10419022;28;20033;-66
2023/07/17 05:53:08;;;;;;;9.15;2.00;;;;;;;15.61;100.00;101411.00;10396059;28;20037;-66
2023/07/17 05:58:09;;;;;;;4.75;2.03;;;;;;;15.99;100.00;101412.44;10411497;28;20041;-65
2023/07/17 06:03:09;;;;;;;8.23;2.40;;;;;;;16.23;100.00;101420.22;10413007;28;20049;-66
2023/07/17 06:08:10;;;;;;;9.80;2.60;;;;;;;16.38;100.00;101422.13;10412939;28;20042;-66
2023/07/17 06:13:11;;;;;;;6.60;1.90;;;;;;;16.51;100.00;101430.69;10413181;28;20038;-66
2023/07/17 06:18:11;;;;;;;7.70;2.28;;;;;;;16.52;100.00;101426.00;10412341;28;20029;-66
2023/07/17 06:23:12;;;;;;;6.35;2.97;;;;;;;16.80;100.00;101427.31;10412691;28;20041;-67
2023/07/17 06:28:12;;;;;;;8.35;3.00;;;;;;;16.77;100.00;101432.63;10403533;28;20045;-66
2023/07/17 06:33:13;;;;;;;11.38;2.40;;;;;;;16.79;100.00;101438.72;10424814;28;20052;-66
2023/07/17 06:38:14;;;;;;;9.95;2.30;;;;;;;16.77;100.00;101429.84;10460540;28;20118;-66
2023/07/17 06:43:14;;;;;;;6.75;2.40;;;;;;;17.17;100.00;101441.94;10441335;28;20044;-66
2023/07/17 06:48:15;;;;;;;11.63;3.42;;;;;;;17.49;100.00;101436.78;10418364;28;20088;-66
2023/07/17 06:53:16;;;;;;;5.43;2.33;;;;;;;17.46;100.00;101436.50;10419749;28;20045;-67
2023/07/17 06:58:16;;;;;;;9.52;3.42;;;;;;;17.38;100.00;101451.03;10418294;28;20044;-66
2023/07/17 07:03:17;;;;;;;11.20;2.80;;;;;;;17.51;100.00;101473.50;10418275;28;20034;-66
2023/07/17 07:08:17;;;;;;;8.82;2.80;;;;;;;17.54;100.00;101464.56;10420072;28;20037;-67
2023/07/17 07:13:19;;;;;;;11.68;3.08;;;;;;;17.39;100.00;101473.00;10418040;28;20033;-66
2023/07/17 07:18:20;;;;;;;8.07;3.30;;;;;;;17.44;100.00;101464.63;10418291;28;20057;-66
2023/07/17 07:23:20;;;;;;;17.45;4.45;;;;;;;17.69;100.00;101471.16;10446717;28;20102;-66
2023/07/17 07:28:21;;;;;;;14.57;4.13;;;;;;;17.99;100.00;101470.19;10457025;28;20057;-66
2023/07/17 07:33:21;;;;;;;9.38;2.95;;;;;;;18.22;100.00;101468.59;10415756;28;20052;-67
2023/07/17 07:38:22;;;;;;;11.25;3.95;;;;;;;18.40;100.00;101485.72;10422843;28;20484;-68
2023/07/17 07:43:22;;;;;;;13.88;4.15;;;;;;;18.71;100.00;101489.91;10451208;28;20051;-67
2023/07/17 07:48:23;;;;;;;8.80;2.75;;;;;;;18.93;100.00;101471.84;10438289;28;20033;-67
2023/07/17 07:53:23;;;;;;;15.38;3.78;;;;;;;19.32;100.00;101484.78;10437911;28;20052;-66
2023/07/17 07:58:24;;;;;;;10.90;3.33;;;;;;;19.17;100.00;101462.66;10437276;28;20092;-66
2023/07/17 08:03:24;;;;;;;10.02;3.28;;;;;;;19.33;100.00;101486.44;10437156;28;20033;-67
2023/07/17 08:08:25;;;;;;;7.95;3.05;;;;;;;19.57;100.00;101486.38;10421241;28;20037;-67
2023/07/17 08:13:25;;;;;;;9.02;2.60;;;;;;;19.80;100.00;101489.47;10417550;28;20036;-67
2023/07/17 08:18:26;;;;;;;9.32;2.60;;;;;;;20.02;100.00;101498.06;10419613;28;20042;-68
2023/07/17 08:23:27;;;;;;;11.57;3.38;;;;;;;20.14;100.00;101497.59;10435188;28;20041;-67
2023/07/17 08:28:27;;;;;;;10.20;3.85;;;;;;;19.52;100.00;101501.25;10436802;28;20036;-68
2023/07/17 08:33:28;;;;;;;5.13;2.08;;;;;;;18.48;100.00;101536.13;10437668;28;20037;-66
2023/07/17 08:38:28;;;;;;;4.97;1.90;;;;;;;17.27;100.00;101556.81;10436928;28;20053;-67
2023/07/17 08:43:29;;;;;;;6.93;2.78;;;;;;;16.63;100.00;101561.06;10396540;28;20068;-67
2023/07/17 08:48:29;;;;;;;8.32;2.47;;;;;;;16.38;100.00;101566.63;10395710;28;20064;-66
2023/07/17 08:53:31;;;;;;;7.07;2.92;;;;;;;16.41;100.00;101566.06;10370110;28;20063;-66
2023/07/17 08:58:31;;;;;;;10.25;2.83;;;;;;;16.84;100.00;101561.91;10395556;28;20061;-67
2023/07/17 09:03:32;;;;;;;9.73;2.63;;;;;;;17.26;100.00;101545.97;10395833;28;20029;-67
2023/07/17 09:08:32;;;;;;;9.10;2.83;;;;;;;17.59;100.00;101536.13;10362457;28;20521;-67
2023/07/17 09:13:40;;;;;;;7.25;2.50;;;;;;;17.77;100.00;101544.94;10395086;28;20029;-67
2023/07/17 09:18:41;;;;;;;8.65;3.00;;;;;;;17.71;100.00;101553.34;10394650;28;20203;-66
2023/07/17 09:23:52;;;;;;;8.57;2.72;;;;;;;18.18;100.00;101565.06;10382593;28;20068;-67
2023/07/17 09:28:55;;;;;;;10.05;3.47;;;;;;;18.62;100.00;101555.78;10378802;28;20049;-67
2023/07/17 09:33:57;;;;;;;10.15;3.00;;;;;;;18.57;100.00;101555.03;10424596;28;20527;-66
2023/07/17 09:38:58;;;;;;;6.63;2.80;;;;;;;18.87;100.00;101562.28;10402213;28;20047;-68
2023/07/17 09:43:59;;;;;;;9.50;3.78;;;;;;;18.44;100.00;101587.16;10412539;28;20040;-68
2023/07/17 09:49:00;;;;;;;8.23;3.33;;;;;;;17.75;100.00;101581.41;10376538;28;20490;-68
2023/07/17 09:54:01;;;;;;;7.43;3.35;;;;;;;17.55;100.00;101599.88;10377692;28;20038;-68
2023/07/17 09:59:14;;;;;;;8.35;3.17;;;;;;;18.18;100.00;101592.09;10392988;28;20053;-67
2023/07/17 10:04:50;;;;;;;9.18;4.10;;;;;;;18.64;100.00;101589.78;10381846;28;20052;-67
2023/07/17 10:09:50;;;;;;;8.60;2.80;;;;;;;18.90;100.00;101567.31;10389037;28;20099;-67
2023/07/17 10:14:51;;;;;;;5.20;2.05;;;;;;;19.00;100.00;101561.63;10408042;28;20045;-68
2023/07/17 10:19:52;;;;;;;4.22;1.60;;;;;;;18.57;100.00;101564.22;10439941;28;20488;-69
2023/07/17 10:24:52;;;;;;;4.75;1.58;;;;;;;19.20;100.00;101556.94;10421999;28;20068;-68
2023/07/17 10:29:53;;;;;;;4.60;1.80;;;;;;;19.71;100.00;101564.72;10401723;28;20060;-68
2023/07/17 10:34:53;;;;;;;4.65;2.30;;;;;;;19.34;100.00;101572.69;10389813;28;20048;-69
2023/07/17 10:40:04;;;;;;;2.15;1.10;;;;;;;19.65;100.00;101558.34;10389287;28;20041;-69
2023/07/17 10:45:11;;;;;;;5.32;1.42;;;;;;;19.61;100.00;101543.31;10460022;28;20116;-69
2023/07/17 10:50:11;;;;;;;5.45;1.58;;;;;;;20.16;100.00;101549.28;10386904;28;20045;-68
2023/07/17 10:55:12;;;;;;;5.95;1.52;;;;;;;20.57;100.00;101567.38;10418008;28;20034;-67
2023/07/17 11:00:13;;;;;;;4.07;1.30;;;;;;;20.99;100.00;101553.53;10383717;28;20563;-68
2023/07/17 11:05:14;;;;;;;6.15;1.55;;;;;;;20.90;100.00;101528.22;10400542;28;20049;-68
2023/07/17 11:10:14;;;;;;;4.55;1.10;;;;;;;21.19;100.00;101553.16;10414582;28;20127;-67
2023/07/17 11:15:19;;;;;;;2.60;1.20;;;;;;;21.22;100.00;101501.28;10381725;28;20041;-68
2023/07/17 11:20:19;;;;;;;3.58;1.20;;;;;;;21.72;100.00;101512.56;10406361;28;20045;-69
2023/07/17 11:25:20;;;;;;;4.60;1.60;;;;;;;21.85;100.00;101542.56;10398924;28;20038;-68
2023/07/17 11:30:32;;;;;;;2.40;1.20;;;;;;;22.16;99.74;101550.25;10399857;28;20029;-70
2023/07/17 11:35:39;;;;;;;3.13;1.70;;;;;;;21.91;93.79;101544.09;10382337;28;20037;-69
2023/07/17 11:40:58;;;;;;;6.13;1.67;;;;;;;22.27;96.20;101550.88;10409645;28;20052;-68
2023/07/17 11:46:03;;;;;;;6.43;1.27;;;;;;;22.46;93.43;101528.22;10398785;28;20498;-68
2023/07/17 11:51:05;;;;;;;4.03;1.20;;;;;;;23.26;90.93;101545.22;10382878;28;20071;-68
2023/07/17 11:56:05;;;;;;;3.97;1.13;;;;;;;23.40;88.25;101547.91;10405017;28;20052;-69
2023/07/17 12:01:06;;;;;;;3.80;1.95;;;;;;;22.52;87.96;101549.41;10413886;28;20033;-68
2023/07/17 12:06:06;;;;;;;3.85;1.33;;;;;;;22.19;89.88;101568.41;10415105;28;20049;-69
2023/07/17 12:11:07;;;;;;;5.28;1.50;;;;;;;21.85;92.18;101558.50;10396828;28;20037;-68
2023/07/17 12:16:07;;;;;;;4.35;1.30;;;;;;;21.99;95.73;101567.72;10397050;28;20208;-68
2023/07/17 12:21:08;;;;;;;4.43;1.60;;;;;;;21.56;97.36;101577.34;10420836;28;20037;-70
2023/07/17 12:26:08;;;;;;;3.10;1.30;;;;;;;21.10;100.00;101589.41;10403334;28;20033;-69
2023/07/17 12:31:09;;;;;;;3.20;1.70;;;;;;;22.06;97.33;101578.53;10436297;28;20041;-68
2023/07/17 12:36:10;;;;;;;5.65;1.30;;;;;;;22.40;93.53;101568.78;10452036;28;20083;-68
2023/07/17 12:41:10;;;;;;;2.00;1.10;;;;;;;23.12;88.97;101557.38;10386483;28;20033;-69
2023/07/17 12:46:11;;;;;;;2.40;0.98;;;;;;;25.02;86.29;101545.00;10420025;28;20048;-70
2023/07/17 12:51:11;;;;;;;4.50;1.25;;;;;;;25.73;83.23;101528.25;10421600;28;20029;-70
2023/07/17 12:56:12;;;;;;;4.07;1.25;;;;;;;24.61;83.89;101555.69;10395149;28;20053;-69
2023/07/17 13:01:12;;;;;;;4.55;1.20;;;;;;;22.68;84.51;101547.88;10419555;28;20048;-70
2023/07/17 13:06:14;;;;;;;3.13;1.08;;;;;;;23.70;82.34;101540.56;10404114;28;20449;-71
2023/07/17 13:11:14;;;;;;;0.93;0.63;;;;;;;23.82;79.36;101535.16;10410590;28;20066;-68
2023/07/17 13:16:15;;;;;;;1.98;1.13;;;;;;;24.01;79.01;101536.84;10411275;28;20042;-69
2023/07/17 13:21:15;;;;;;;3.97;1.55;;;;;;;24.52;78.37;101540.81;10395713;28;20037;-69
2023/07/17 13:26:17;;;;;;;2.38;1.00;;;;;;;24.73;77.85;101540.94;10408220;28;20543;-69
2023/07/17 13:31:17;;;;;;;2.30;1.17;;;;;;;23.86;79.60;101564.28;10377882;28;20033;-69
2023/07/17 13:36:18;;;;;;;4.28;1.38;;;;;;;23.52;80.13;101563.00;10409947;28;20115;-69
2023/07/17 13:41:38;;;;;;;2.78;1.05;;;;;;;22.82;85.84;101587.09;10393052;28;20089;-70
2023/07/17 13:46:38;;;;;;;4.20;1.40;;;;;;;21.64;86.90;101588.97;10402144;28;20064;-69
2023/07/17 13:51:39;;;;;;;3.42;1.42;;;;;;;21.32;88.34;101604.69;10406675;28;20040;-68
2023/07/17 13:56:40;;;;;;;6.28;1.48;;;;;;;20.51;98.18;101655.31;10391771;28;20030;-69
2023/07/17 14:01:40;;;;;;;6.72;1.85;;;;;;;19.27;100.00;101708.19;10390853;28;20231;-69
2023/07/17 14:06:41;;;;;;;6.88;1.75;;;;;;;18.00;100.00;101733.72;10390878;28;20095;-69
2023/07/17 14:11:44;;;;;;;6.78;2.13;;;;;;;17.10;100.00;101707.38;10370567;28;20040;-68
2023/07/17 14:16:44;;;;;;;6.50;2.03;;;;;;;16.44;100.00;101735.06;10366609;28;20042;-69
2023/07/17 14:21:45;;;;;;;4.50;1.50;;;;;;;16.45;100.00;101720.88;10352804;28;20051;-69
2023/07/17 14:26:46;;;;;;;5.78;1.50;;;;;;;16.70;100.00;101700.66;10418536;28;20460;-71
2023/07/17 14:31:46;;;;;;;3.03;1.10;;;;;;;17.37;100.00;101702.66;10413661;28;20636;-71
2023/07/17 14:36:47;;;;;;;4.85;1.38;;;;;;;18.92;100.00;101698.97;10384600;28;20057;-70
2023/07/17 14:41:47;;;;;;;2.20;1.00;;;;;;;19.02;100.00;101684.13;10392917;28;20084;-71
2023/07/17 14:46:48;;;;;;;2.05;0.88;;;;;;;18.49;100.00;101690.31;10428925;28;20033;-71
2023/07/17 14:51:48;;;;;;;2.00;0.75;;;;;;;17.89;100.00;101676.38;10419457;28;20041;-71
2023/07/17 14:56:50;;;;;;;4.22;1.20;;;;;;;17.95;100.00;101678.84;10363578;28;20090;-70
2023/07/17 15:01:51;;;;;;;2.55;0.90;;;;;;;19.03;100.00;101686.59;10419959;28;20041;-70
2023/07/17 15:06:51;;;;;;;3.35;1.20;;;;;;;21.13;100.00;101674.78;10405369;28;20052;-70
2023/07/17 15:11:52;;;;;;;5.53;1.17;;;;;;;22.63;100.00;101643.41;10382776;28;20049;-71
2023/07/17 15:16:53;;;;;;;4.43;1.27;;;;;;;22.73;100.00;101645.97;10420550;28;20067;-72
2023/07/17 15:21:53;;;;;;;4.15;1.75;;;;;;;21.24;100.00;101675.41;10399540;28;20081;-72
2023/07/17 15:26:54;;;;;;;5.55;1.95;;;;;;;20.46;100.00;101691.75;10398900;28;20073;-69
2023/07/17 15:31:54;;;;;;;3.47;1.27;;;;;;;20.32;100.00;101675.72;10369579;28;20065;-70
2023/07/17 15:36:55;;;;;;;3.33;1.55;;;;;;;20.41;100.00;101689.03;10402034;28;20251;-68
2023/07/17 15:41:55;;;;;;;3.85;1.33;;;;;;;20.71;100.00;101690.56;10396118;28;20037;-70
2023/07/17 15:46:56;;;;;;;4.15;2.05;;;;;;;20.16;100.00;101565.22;10438112;28;20045;-71
2023/07/17 15:51:56;;;;;;;6.97;2.47;;;;;;;20.06;100.00;101678.00;10377478;28;20543;-68
2023/07/17 15:56:57;;;;;;;4.38;1.80;;;;;;;19.74;100.00;101687.03;10402861;28;20056;-69
2023/07/17 16:01:58;;;;;;;3.58;1.17;;;;;;;19.40;100.00;101682.34;10379687;28;20072;-70
2023/07/17 16:06:58;;;;;;;6.63;2.25;;;;;;;19.66;100.00;101696.06;10417166;28;20033;-69
2023/07/17 16:11:59;;;;;;;3.30;1.38;;;;;;;21.26;100.00;101681.56;10400420;28;20405;-71
2023/07/17 16:16:59;;;;;;;4.53;1.90;;;;;;;20.90;100.00;101687.75;10433128;28;20041;-70
2023/07/17 16:22:00;;;;;;;5.72;1.95;;;;;;;20.42;100.00;101685.09;10417662;28;20034;-70
2023/07/17 16:27:00;;;;;;;5.72;1.83;;;;;;;21.44;100.00;101677.88;10379848;28;20057;-72
2023/07/17 16:32:01;;;;;;;5.47;2.03;;;;;;;23.04;100.00;101656.47;10381217;28;20121;-70
2023/07/17 16:37:03;;;;;;;7.05;1.95;;;;;;;23.76;100.00;101609.53;10379470;28;20049;-69
2023/07/17 16:42:03;;;;;;;4.60;1.58;;;;;;;24.35;100.00;101635.34;10380471;28;20124;-70
2023/07/17 16:47:04;;;;;;;3.15;1.20;;;;;;;24.59;100.00;101647.28;10397505;28;20116;-68
2023/07/17 16:52:05;;;;;;;8.68;1.70;;;;;;;23.75;96.60;101634.03;10421375;28;21147;-69
2023/07/17 16:57:06;;;;;;;6.60;2.15;;;;;;;21.92;100.00;101655.06;10432244;28;20132;-69
2023/07/17 17:02:06;;;;;;;4.05;1.67;;;;;;;20.96;100.00;101641.75;10453066;28;20036;-69
2023/07/17 17:07:07;;;;;;;7.00;2.25;;;;;;;21.08;100.00;101658.88;10423586;28;20045;-68
2023/07/17 17:12:08;;;;;;;3.45;1.55;;;;;;;21.45;100.00;101640.31;10419333;28;20041;-69
2023/07/17 17:17:08;;;;;;;5.70;1.58;;;;;;;20.91;100.00;101644.63;10402897;28;20029;-68
2023/07/17 17:22:08;;;;;;;4.40;1.52;;;;;;;20.46;100.00;101647.81;10402940;28;20104;-69
2023/07/17 17:27:09;;;;;;;3.47;1.40;;;;;;;20.43;100.00;101681.16;10419541;28;20060;-69
2023/07/17 17:32:09;;;;;;;5.05;2.10;;;;;;;20.11;100.00;101688.28;10434163;28;20040;-69
2023/07/17 17:37:10;;;;;;;5.30;1.77;;;;;;;19.99;100.00;101685.09;10410058;28;20033;-69
2023/07/17 17:42:10;;;;;;;5.47;1.70;;;;;;;19.72;100.00;101701.34;10452786;28;20064;-69
2023/07/17 17:47:11;;;;;;;3.83;1.60;;;;;;;19.45;100.00;101710.25;10416764;28;20041;-69
2023/07/17 17:52:12;;;;;;;3.92;1.83;;;;;;;19.31;100.00;101712.88;10397395;28;20029;-69
2023/07/17 17:57:13;;;;;;;7.55;1.80;;;;;;;19.29;100.00;101725.47;10377033;28;20051;-67
2023/07/17 18:02:15;;;;;;;4.13;1.20;;;;;;;19.12;100.00;101734.25;10392954;28;20038;-68
2023/07/17 18:07:15;;;;;;;5.55;2.00;;;;;;;19.00;100.00;101750.56;10420930;28;20048;-69
2023/07/17 18:12:16;;;;;;;6.75;1.42;;;;;;;18.78;100.00;101743.38;10451500;28;20029;-68
2023/07/17 18:17:16;;;;;;;6.30;1.50;;;;;;;18.59;100.00;101762.75;10417415;28;20048;-68
2023/07/17 18:22:17;;;;;;;4.55;1.77;;;;;;;18.49;100.00;101769.22;10404466;28;20041;-68
2023/07/17 18:27:17;;;;;;;4.93;1.50;;;;;;;18.30;100.00;101777.38;10438758;28;20048;-68
2023/07/17 18:32:18;;;;;;;5.28;1.52;;;;;;;18.20;100.00;101791.34;10398131;28;20060;-69
2023/07/17 18:37:20;;;;;;;6.10;1.85;;;;;;;18.12;100.00;101783.56;10431687;28;20040;-68
2023/07/17 18:42:20;;;;;;;5.35;1.40;;;;;;;18.10;100.00;101789.41;10440608;28;20095;-68
2023/07/17 18:47:21;;;;;;;4.18;1.42;;;;;;;18.01;100.00;101784.72;10440405;28;20037;-68
2023/07/17 18:52:22;;;;;;;8.18;2.20;;;;;;;17.92;100.00;101793.66;10423443;28;20488;-67
2023/07/17 18:57:22;;;;;;;5.38;1.65;;;;;;;17.76;100.00;101800.34;10441989;28;20141;-69
2023/07/17 19:02:24;;;;;;;3.58;1.60;;;;;;;17.68;100.00;101814.81;10417153;28;20052;-68
2023/07/17 19:07:24;;;;;;;4.53;1.20;;;;;;;17.58;100.00;101825.97;10456560;28;20040;-68
2023/07/17 19:12:25;;;;;;;3.63;1.70;;;;;;;17.42;100.00;101830.69;10439043;28;20045;-68
2023/07/17 19:17:25;;;;;;;4.32;1.98;;;;;;;17.25;100.00;101822.59;10406246;28;20033;-68
2023/07/17 19:22:26;;;;;;;4.75;1.30;;;;;;;17.10;100.00;101827.03;10439731;28;20029;-68
2023/07/17 19:27:26;;;;;;;4.65;1.52;;;;;;;16.97;100.00;101833.13;10438643;28;20132;-68
2023/07/17 19:32:27;;;;;;;3.40;1.67;;;;;;;16.76;100.00;101840.50;10438855;28;20036;-68
2023/07/17 19:37:28;;;;;;;4.60;1.80;;;;;;;16.24;100.00;101802.50;10422812;28;20045;-69
2023/07/17 19:42:28;;;;;;;3.88;2.03;;;;;;;16.32;100.00;101860.34;10439195;28;20070;-68
2023/07/17 19:47:29;;;;;;;6.95;2.75;;;;;;;15.99;100.00;101850.41;10422471;28;20138;-70
2023/07/17 19:52:29;;;;;;;11.27;3.40;;;;;;;15.93;100.00;101871.72;10438008;28;20029;-69
2023/07/17 19:57:30;;;;;;;4.07;2.17;;;;;;;15.79;100.00;101884.41;10421400;28;20040;-69
2023/07/17 20:02:32;;;;;;;5.10;1.40;;;;;;;15.65;100.00;101890.38;10437748;28;20033;-69
2023/07/17 20:07:33;;;;;;;5.95;2.30;;;;;;;15.52;100.00;101897.19;10408232;28;20041;-69
2023/07/17 20:12:33;;;;;;;5.65;1.92;;;;;;;15.43;100.00;101911.78;10437942;28;20079;-69
2023/07/17 20:17:35;;;;;;;6.47;1.85;;;;;;;15.29;100.00;101909.41;10454804;28;20041;-68
2023/07/17 20:22:37;;;;;;;4.97;1.90;;;;;;;15.13;100.00;101911.22;10455074;28;20535;-69
2023/07/17 20:27:45;;;;;;;7.45;1.98;;;;;;;15.06;100.00;101920.81;10391586;28;20378;-69
2023/07/17 20:32:46;;;;;;;6.85;1.63;;;;;;;14.93;100.00;101916.50;10400072;28;20036;-69
2023/07/17 20:37:46;;;;;;;4.43;1.92;;;;;;;14.83;100.00;101919.16;10395563;28;20065;-69
2023/07/17 20:42:47;;;;;;;4.35;2.17;;;;;;;14.50;100.00;101890.41;10404428;28;20057;-69
2023/07/17 20:47:47;;;;;;;6.55;2.20;;;;;;;14.61;100.00;101925.50;10419391;28;20344;-68
2023/07/17 20:52:48;;;;;;;7.75;2.15;;;;;;;14.45;100.00;101918.88;10415966;28;20450;-69
2023/07/17 20:57:48;;;;;;;6.50;2.10;;;;;;;14.46;100.00;101936.34;10419282;28;20120;-69
2023/07/17 21:02:49;;;;;;;6.25;2.53;;;;;;;14.40;100.00;101951.22;10396225;28;20065;-68
2023/07/17 21:07:49;;;;;;;6.38;2.17;;;;;;;14.31;100.00;101948.88;10411374;28;20042;-67
2023/07/17 21:12:51;;;;;;;5.10;2.97;;;;;;;14.23;100.00;101946.53;10379637;28;20037;-69
2023/07/17 21:17:52;;;;;;;9.90;2.65;;;;;;;14.12;100.00;101950.22;10386724;28;20060;-68
2023/07/17 21:22:52;;;;;;;11.07;3.00;;;;;;;14.02;100.00;101950.91;10410227;28;20060;-69
2023/07/17 21:27:53;;;;;;;7.05;2.50;;;;;;;13.92;100.00;101953.50;10393406;28;20046;-69
2023/07/17 21:32:53;;;;;;;7.53;3.15;;;;;;;13.87;100.00;101959.78;10377200;28;20053;-68
2023/07/17 21:37:54;;;;;;;4.95;2.60;;;;;;;13.78;100.00;101961.25;10411904;28;20038;-69
2023/07/17 21:42:54;;;;;;;10.10;2.97;;;;;;;13.70;100.00;101958.91;10393794;28;20030;-69
2023/07/17 21:47:55;;;;;;;7.03;2.70;;;;;;;13.63;100.00;101963.75;10393363;28;20037;-69
2023/07/17 21:52:55;;;;;;;4.75;2.88;;;;;;;13.57;100.00;101973.06;10376570;28;20029;-68
2023/07/17 21:57:56;;;;;;;11.27;3.78;;;;;;;13.55;100.00;101975.22;10412310;28;20057;-68
2023/07/17 22:02:57;;;;;;;9.85;3.20;;;;;;;13.51;100.00;101972.94;10401797;28;20097;-69
2023/07/17 22:07:57;;;;;;;7.55;3.05;;;;;;;13.47;100.00;101973.69;10400958;28;20038;-68
2023/07/17 22:12:58;;;;;;;5.97;2.75;;;;;;;13.47;100.00;101982.00;10410337;28;20037;-69
2023/07/17 22:18:00;;;;;;;9.43;2.67;;;;;;;13.38;100.00;101967.72;10440512;28;20060;-69
2023/07/17 22:23:01;;;;;;;8.27;3.08;;;;;;;13.39;100.00;101979.63;10410142;28;20048;-68
2023/07/17 22:28:02;;;;;;;8.35;4.13;;;;;;;13.32;100.00;101985.28;10430335;28;20052;-69
2023/07/17 22:33:03;;;;;;;8.68;3.55;;;;;;;13.19;100.00;101968.94;10399271;28;20038;-68
2023/07/17 22:38:03;;;;;;;9.60;3.72;;;;;;;13.16;100.00;101969.44;10430174;28;20040;-68
2023/07/17 22:43:04;;;;;;;7.35;3.30;;;;;;;13.08;100.00;101968.75;10416572;28;20040;-69
2023/07/17 22:48:04;;;;;;;8.40;3.30;;;;;;;13.10;100.00;101987.84;10442377;28;20040;-68